createdAt,value
2022-10-05T00:00:17.103Z,15.24
2022-10-05T00:02:44.146Z,15.24
2022-10-05T00:05:32.340Z,15.23
2022-10-05T00:08:13.346Z,15.24
2022-10-05T00:10:42.311Z,15.23
2022-10-05T00:13:22.363Z,15.23
2022-10-05T00:15:59.322Z,15.23
2022-10-05T00:18:26.952Z,15.23
2022-10-05T00:20:53.540Z,15.22
2022-10-05T00:23:24.781Z,15.22
2022-10-05T00:25:51.321Z,15.22
2022-10-05T00:28:21.480Z,15.23
2022-10-05T00:30:49.417Z,15.22
2022-10-05T00:33:15.847Z,15.18
2022-10-05T00:35:42.378Z,15.21
2022-10-05T00:38:08.845Z,15.18
2022-10-05T00:40:47.081Z,15.24
2022-10-05T00:43:39.621Z,15.16
2022-10-05T00:46:39.888Z,15.23
2022-10-05T00:49:20.807Z,15.24
2022-10-05T00:51:56.395Z,15.26
2022-10-05T00:54:38.779Z,15.26
2022-10-05T00:57:08.269Z,15.27
2022-10-05T00:59:51.680Z,15.22
2022-10-05T01:02:35.798Z,15.28
2022-10-05T01:09:15.316Z,15.22
2022-10-05T01:12:00.947Z,15.21
2022-10-05T01:14:31.053Z,15.19
2022-10-05T01:17:22.219Z,15.23
2022-10-05T01:20:10.424Z,15.23
2022-10-05T01:22:52.330Z,15.26
2022-10-05T01:25:24.854Z,15.26
2022-10-05T01:28:01.958Z,15.27
2022-10-05T01:30:36.064Z,15.26
2022-10-05T01:33:21.638Z,15.27
2022-10-05T01:36:06.544Z,15.28
2022-10-05T01:39:03.008Z,15.26
2022-10-05T01:41:50.196Z,15.28
2022-10-05T01:44:25.074Z,15.25
2022-10-05T01:47:06.756Z,15.27
2022-10-05T01:49:38.707Z,15.28
2022-10-05T01:52:29.440Z,15.26
2022-10-05T01:55:15.795Z,15.23
2022-10-05T01:57:44.825Z,15.25
2022-10-05T02:00:14.218Z,15.26
2022-10-05T02:03:24.711Z,15.33
2022-10-05T02:05:57.888Z,15.32
2022-10-05T02:08:31.085Z,15.34
2022-10-05T02:11:11.913Z,15.29
2022-10-05T02:13:49.894Z,15.29
2022-10-05T02:16:23.110Z,15.27
2022-10-05T02:18:59.584Z,15.23
2022-10-05T02:21:27.878Z,15.22
2022-10-05T02:23:57.501Z,15.21
2022-10-05T02:26:25.685Z,15.19
2022-10-05T02:29:02.320Z,15.18
2022-10-05T02:31:40.556Z,15.15
2022-10-05T02:34:27.953Z,15.15
2022-10-05T02:37:12.456Z,15.15
2022-10-05T02:40:36.337Z,15.13
2022-10-05T02:43:12.046Z,15.13
2022-10-05T02:45:47.029Z,15.09
2022-10-05T02:48:42.252Z,15.05
2022-10-05T02:51:24.631Z,15.03
2022-10-05T02:54:12.919Z,14.97
2022-10-05T02:56:57.713Z,14.98
2022-10-05T02:59:44.637Z,14.91
2022-10-05T03:02:29.526Z,14.98
2022-10-05T03:05:10.912Z,14.90
2022-10-05T03:07:52.229Z,14.84
2022-10-05T03:10:20.895Z,14.83
2022-10-05T03:13:01.525Z,14.77
2022-10-05T03:16:03.516Z,14.78
2022-10-05T03:18:46.302Z,14.75
2022-10-05T03:21:39.720Z,14.75
2022-10-05T03:24:43.671Z,14.76
2022-10-05T03:27:30.777Z,14.73
2022-10-05T03:30:21.739Z,14.71
2022-10-05T03:33:25.779Z,14.74
2022-10-05T03:36:09.647Z,14.72
2022-10-05T03:38:55.539Z,14.73
2022-10-05T03:42:01.690Z,14.63
2022-10-05T03:44:52.790Z,14.64
2022-10-05T03:47:27.570Z,14.64
2022-10-05T03:50:21.817Z,14.68
2022-10-05T03:52:59.316Z,14.65
2022-10-05T03:55:47.659Z,14.73
2022-10-05T03:58:20.757Z,14.73
2022-10-05T04:01:11.234Z,14.71
2022-10-05T04:03:46.922Z,14.71
2022-10-05T04:06:24.452Z,14.69
2022-10-05T04:08:58.416Z,14.67
2022-10-05T04:11:37.983Z,14.70
2022-10-05T04:14:12.647Z,14.66
2022-10-05T04:16:45.065Z,14.69
2022-10-05T04:19:30.959Z,14.74
2022-10-05T04:22:20.127Z,14.73
2022-10-05T04:24:51.142Z,14.71
2022-10-05T04:27:26.757Z,14.74
2022-10-05T04:30:16.188Z,14.74
2022-10-05T04:32:45.674Z,14.74
2022-10-05T04:35:30.746Z,14.75
2022-10-05T04:38:24.113Z,14.72
2022-10-05T04:41:14.516Z,14.74
2022-10-05T04:44:07.630Z,14.74
2022-10-05T04:46:40.082Z,14.74
2022-10-05T04:49:14.053Z,14.74
2022-10-05T04:51:51.364Z,14.74
2022-10-05T04:54:36.881Z,14.79
2022-10-05T04:57:10.915Z,14.80
2022-10-05T04:59:54.695Z,14.81
2022-10-05T05:02:30.118Z,14.80
2022-10-05T05:05:03.014Z,14.78
2022-10-05T05:07:55.472Z,14.78
2022-10-05T05:10:27.689Z,14.82
2022-10-05T05:13:06.205Z,14.81
2022-10-05T05:15:47.256Z,14.77
2022-10-05T05:18:36.337Z,14.77
2022-10-05T05:21:48.024Z,14.81
2022-10-05T05:24:46.432Z,14.78
2022-10-05T05:27:34.067Z,14.78
2022-10-05T05:30:19.143Z,14.74
2022-10-05T05:32:58.278Z,14.74
2022-10-05T05:35:52.138Z,14.74
2022-10-05T05:38:29.583Z,14.79
2022-10-05T05:41:08.416Z,14.81
2022-10-05T05:43:50.457Z,14.77
2022-10-05T05:46:44.676Z,14.73
2022-10-05T05:49:20.184Z,14.74
2022-10-05T05:51:59.020Z,14.74
2022-10-05T05:54:39.263Z,14.71
2022-10-05T05:57:10.900Z,14.75
2022-10-05T06:00:05.640Z,14.73
2022-10-05T06:02:57.004Z,14.74
2022-10-05T06:05:45.121Z,14.73
2022-10-05T06:08:40.614Z,14.72
2022-10-05T06:11:16.549Z,14.71
2022-10-05T06:13:43.862Z,14.69
2022-10-05T06:16:31.575Z,14.72
2022-10-05T06:19:04.838Z,14.70
2022-10-05T06:21:45.445Z,14.73
2022-10-05T06:24:17.786Z,14.74
2022-10-05T06:27:15.355Z,14.77
2022-10-05T06:30:04.645Z,14.77
2022-10-05T06:32:59.032Z,14.77
2022-10-05T06:36:02.193Z,14.82
2022-10-05T06:39:13.966Z,14.83
2022-10-05T06:42:13.596Z,14.86
2022-10-05T06:44:55.485Z,14.87
2022-10-05T06:47:54.259Z,14.92
2022-10-05T06:50:35.880Z,14.93
2022-10-05T06:53:33.415Z,14.93
2022-10-05T06:56:12.264Z,14.94
2022-10-05T06:58:57.129Z,15.00
2022-10-05T07:01:35.817Z,14.99
2022-10-05T07:04:17.389Z,15.02
2022-10-05T07:06:55.083Z,15.00
2022-10-05T07:09:45.889Z,15.01
2022-10-05T07:12:21.160Z,14.98
2022-10-05T07:15:29.473Z,14.98
2022-10-05T07:18:17.813Z,14.99
2022-10-05T07:20:59.201Z,14.97
2022-10-05T07:23:41.492Z,14.98
2022-10-05T07:26:42.249Z,14.99
2022-10-05T07:29:50.025Z,14.97
2022-10-05T07:32:39.511Z,14.99
2022-10-05T07:35:34.471Z,15.00
2022-10-05T07:38:11.979Z,15.05
2022-10-05T07:41:16.135Z,15.08
2022-10-05T07:44:01.990Z,15.11
2022-10-05T07:46:37.687Z,15.11
2022-10-05T07:49:23.274Z,15.13
2022-10-05T07:52:00.868Z,15.18
2022-10-05T07:54:31.302Z,15.19
2022-10-05T07:57:13.854Z,15.18
2022-10-05T08:00:05.650Z,15.25
2022-10-05T08:02:51.084Z,15.21
2022-10-05T08:05:38.185Z,15.32
2022-10-05T08:08:20.550Z,15.28
2022-10-05T08:11:07.059Z,15.30
2022-10-05T08:13:36.523Z,15.32
2022-10-05T08:16:12.577Z,15.37
2022-10-05T08:19:02.366Z,15.36
2022-10-05T08:21:54.699Z,15.39
2022-10-05T08:24:40.909Z,15.39
2022-10-05T08:27:36.720Z,15.40
2022-10-05T08:30:09.477Z,15.42
2022-10-05T08:32:50.342Z,15.42
2022-10-05T08:35:26.119Z,15.48
2022-10-05T08:37:53.763Z,15.43
2022-10-05T08:40:39.209Z,15.43
2022-10-05T08:43:24.840Z,15.44
2022-10-05T08:46:35.581Z,15.42
2022-10-05T08:49:01.959Z,15.47
2022-10-05T08:51:49.546Z,15.50
2022-10-05T08:54:39.274Z,15.47
2022-10-05T08:57:27.109Z,15.50
2022-10-05T09:00:20.258Z,15.48
2022-10-05T09:03:19.102Z,15.49
2022-10-05T09:06:15.123Z,15.53
2022-10-05T09:09:09.479Z,15.54
2022-10-05T09:11:42.625Z,15.55
2022-10-05T09:14:56.415Z,15.57
2022-10-05T09:17:54.400Z,15.59
2022-10-05T09:20:30.827Z,15.62
2022-10-05T09:23:00.260Z,15.61
2022-10-05T09:25:57.315Z,15.61
2022-10-05T09:28:31.081Z,15.65
2022-10-05T09:31:27.422Z,15.69
2022-10-05T09:34:26.428Z,15.71
2022-10-05T09:37:27.769Z,15.72
2022-10-05T09:40:25.989Z,15.78
2022-10-05T09:43:02.436Z,15.85
2022-10-05T09:45:59.705Z,15.90
2022-10-05T09:48:47.844Z,15.99
2022-10-05T09:51:49.553Z,15.98
2022-10-05T09:54:37.452Z,16.03
2022-10-05T09:57:37.064Z,16.14
2022-10-05T10:00:24.100Z,16.16
2022-10-05T10:03:08.851Z,16.09
2022-10-05T10:05:41.189Z,16.13
2022-10-05T10:08:46.119Z,16.07
2022-10-05T10:11:34.678Z,16.07
2022-10-05T10:14:24.032Z,16.08
2022-10-05T10:16:56.373Z,16.09
2022-10-05T10:19:41.033Z,16.03
2022-10-05T10:22:43.113Z,15.96
2022-10-05T10:25:50.117Z,15.98
2022-10-05T10:28:35.317Z,16.01
2022-10-05T10:31:16.000Z,15.96
2022-10-05T10:34:30.732Z,16.00
2022-10-05T10:37:23.808Z,16.00
2022-10-05T10:40:44.866Z,15.99
2022-10-05T10:43:50.154Z,15.92
2022-10-05T10:46:41.076Z,15.92
2022-10-05T10:49:36.889Z,15.94
2022-10-05T10:52:25.138Z,15.95
2022-10-05T10:55:13.121Z,15.98
2022-10-05T10:57:50.243Z,15.96
2022-10-05T11:00:44.120Z,15.98
2022-10-05T11:03:40.113Z,15.97
2022-10-05T11:06:17.176Z,15.95
2022-10-05T11:09:21.298Z,15.98
2022-10-05T11:11:53.275Z,15.91
2022-10-05T11:14:38.386Z,15.91
2022-10-05T11:17:50.685Z,15.93
2022-10-05T11:20:27.942Z,15.91
2022-10-05T11:23:06.148Z,15.91
2022-10-05T11:25:54.849Z,15.93
2022-10-05T11:28:37.841Z,15.90
2022-10-05T11:31:16.607Z,15.88
2022-10-05T11:34:16.240Z,15.91
2022-10-05T11:37:13.591Z,15.88
2022-10-05T11:40:17.977Z,15.91
2022-10-05T11:42:53.428Z,15.92
2022-10-05T11:45:23.906Z,15.94
2022-10-05T11:48:13.431Z,15.98
2022-10-05T11:50:48.930Z,16.00
2022-10-05T11:53:26.780Z,16.02
2022-10-05T11:56:16.826Z,16.01
2022-10-05T11:58:50.986Z,16.07
2022-10-05T12:01:20.062Z,16.09
2022-10-05T12:04:16.945Z,16.09
2022-10-05T12:07:25.048Z,16.11
2022-10-05T12:10:17.077Z,16.16
2022-10-05T12:12:53.228Z,16.20
2022-10-05T12:15:50.812Z,16.22
2022-10-05T12:18:26.129Z,16.19
2022-10-05T12:21:05.311Z,16.17
2022-10-05T12:23:44.269Z,16.21
2022-10-05T12:26:16.089Z,16.16
2022-10-05T12:28:50.055Z,16.20
2022-10-05T12:31:38.515Z,16.15
2022-10-05T12:34:37.828Z,16.22
2022-10-05T12:37:16.333Z,16.26
2022-10-05T12:39:53.918Z,16.32
2022-10-05T12:42:31.517Z,16.36
2022-10-05T12:45:28.212Z,16.39
2022-10-05T12:48:20.373Z,16.45
2022-10-05T12:50:54.948Z,16.41
2022-10-05T12:53:37.240Z,16.42
2022-10-05T12:56:19.141Z,16.46
2022-10-05T12:58:54.153Z,16.44
2022-10-05T13:01:30.393Z,16.38
2022-10-05T13:04:29.297Z,16.36
2022-10-05T13:06:55.746Z,16.38
2022-10-05T13:09:39.880Z,16.42
2022-10-05T13:12:21.298Z,16.42
2022-10-05T13:15:15.273Z,16.40
2022-10-05T13:18:13.037Z,16.41
2022-10-05T13:20:48.903Z,16.41
2022-10-05T13:23:31.386Z,16.46
2022-10-05T13:26:07.815Z,16.44
2022-10-05T13:28:49.427Z,16.46
2022-10-05T13:31:24.749Z,16.48
2022-10-05T13:34:03.281Z,16.47
2022-10-05T13:36:40.157Z,16.57
2022-10-05T13:39:31.550Z,16.55
2022-10-05T13:42:21.459Z,16.53
2022-10-05T13:44:58.848Z,16.58
2022-10-05T13:47:44.214Z,16.61
2022-10-05T13:50:32.697Z,16.66
2022-10-05T13:53:03.072Z,16.67
2022-10-05T13:55:39.053Z,16.67
2022-10-05T13:58:14.274Z,16.72
2022-10-05T14:00:50.997Z,16.70
2022-10-05T14:03:35.659Z,16.73
2022-10-05T14:06:13.882Z,16.79
2022-10-05T14:08:52.504Z,16.80
2022-10-05T14:11:33.503Z,16.73
2022-10-05T14:14:24.765Z,16.74
2022-10-05T14:16:57.566Z,16.74
2022-10-05T14:19:24.225Z,16.80
2022-10-05T14:22:11.024Z,16.81
2022-10-05T14:24:47.045Z,16.85
2022-10-05T14:27:28.492Z,16.81
2022-10-05T14:30:15.142Z,16.83
2022-10-05T14:32:59.465Z,16.78
2022-10-05T14:35:50.289Z,16.78
2022-10-05T14:38:25.626Z,16.78
2022-10-05T14:41:21.959Z,16.76
2022-10-05T14:44:12.841Z,16.79
2022-10-05T14:46:53.019Z,16.82
2022-10-05T14:49:24.181Z,16.87
2022-10-05T14:51:53.281Z,16.90
2022-10-05T14:54:56.939Z,16.96
2022-10-05T14:57:32.002Z,16.90
2022-10-05T15:00:25.988Z,16.91
2022-10-05T15:03:16.138Z,16.84
2022-10-05T15:05:49.682Z,16.86
2022-10-05T15:08:31.355Z,16.85
2022-10-05T15:11:07.677Z,16.80
2022-10-05T15:13:45.107Z,16.78
2022-10-05T15:16:31.428Z,16.78
2022-10-05T15:19:13.778Z,16.75
2022-10-05T15:21:43.139Z,16.77
2022-10-05T15:24:25.221Z,16.75
2022-10-05T15:26:58.351Z,16.78
2022-10-05T15:29:31.007Z,16.75
2022-10-05T15:32:14.757Z,16.75
2022-10-05T15:34:52.144Z,16.74
2022-10-05T15:37:33.989Z,16.74
2022-10-05T15:40:08.507Z,16.73
2022-10-05T15:42:42.966Z,16.72
2022-10-05T15:45:20.751Z,16.77
2022-10-05T15:47:59.905Z,16.73
2022-10-05T15:50:35.125Z,16.73
2022-10-05T15:53:20.582Z,16.73
2022-10-05T15:55:55.914Z,16.69
2022-10-05T15:58:42.220Z,16.71
2022-10-05T16:01:33.860Z,16.69
2022-10-05T16:04:37.502Z,16.68
2022-10-05T16:07:30.897Z,16.65
2022-10-05T16:10:10.704Z,16.60
2022-10-05T16:12:55.852Z,16.60
2022-10-05T16:15:37.089Z,16.62
2022-10-05T16:18:16.193Z,16.59
2022-10-05T16:21:10.412Z,16.61
2022-10-05T16:23:53.292Z,16.61
2022-10-05T16:26:46.553Z,16.62
2022-10-05T16:29:32.938Z,16.62
2022-10-05T16:32:18.946Z,16.59
2022-10-05T16:35:22.084Z,16.60
2022-10-05T16:38:28.360Z,16.64
2022-10-05T16:41:09.535Z,16.61
2022-10-05T16:44:05.357Z,16.65
2022-10-05T16:46:50.036Z,16.61
2022-10-05T16:50:04.718Z,16.60
2022-10-05T16:52:33.392Z,16.62
2022-10-05T16:55:05.402Z,16.57
2022-10-05T16:57:50.680Z,16.57
2022-10-05T17:00:21.985Z,16.64
2022-10-05T17:02:57.594Z,16.62
2022-10-05T17:05:27.106Z,16.62
2022-10-05T17:08:33.404Z,16.64
2022-10-05T17:11:07.316Z,16.57
2022-10-05T17:14:04.880Z,16.54
2022-10-05T17:17:04.193Z,16.52
2022-10-05T17:19:47.783Z,16.54
2022-10-05T17:22:27.088Z,16.52
2022-10-05T17:25:14.496Z,16.53
2022-10-05T17:27:56.827Z,16.52
2022-10-05T17:30:23.458Z,16.54
2022-10-05T17:33:17.621Z,16.52
2022-10-05T17:36:13.543Z,16.51
2022-10-05T17:38:52.412Z,16.52
2022-10-05T17:41:28.687Z,16.49
2022-10-05T17:44:15.858Z,16.47
2022-10-05T17:46:45.680Z,16.48
2022-10-05T17:49:37.036Z,16.47
2022-10-05T17:52:44.708Z,16.47
2022-10-05T17:55:28.263Z,16.50
2022-10-05T17:57:58.676Z,16.53
2022-10-05T18:00:32.901Z,16.55
2022-10-05T18:02:59.357Z,16.58
2022-10-05T18:05:30.459Z,16.58
2022-10-05T18:08:12.760Z,16.57
2022-10-05T18:11:13.389Z,16.56
2022-10-05T18:13:46.174Z,16.56
2022-10-05T18:16:13.379Z,16.54
2022-10-05T18:18:42.681Z,16.52
2022-10-05T18:21:15.081Z,16.49
2022-10-05T18:23:51.405Z,16.46
2022-10-05T18:26:36.489Z,16.44
2022-10-05T18:29:51.268Z,16.31
2022-10-05T18:32:46.076Z,16.32
2022-10-05T18:35:44.127Z,16.42
2022-10-05T18:38:35.920Z,16.53
2022-10-05T18:41:17.280Z,16.54
2022-10-05T18:44:09.104Z,16.51
2022-10-05T18:47:00.361Z,16.56
2022-10-05T18:50:04.618Z,16.46
2022-10-05T18:52:46.188Z,16.32
2022-10-05T18:55:28.934Z,16.04
2022-10-05T18:58:21.490Z,16.17
2022-10-05T19:01:00.440Z,15.93
2022-10-05T19:04:04.418Z,15.65
2022-10-05T19:06:38.817Z,15.54
2022-10-05T19:09:27.268Z,15.26
2022-10-05T19:12:12.921Z,15.06
2022-10-05T19:14:57.585Z,14.78
2022-10-05T19:17:47.102Z,14.70
2022-10-05T19:20:28.318Z,14.65
2022-10-05T19:23:21.769Z,14.49
2022-10-05T19:25:49.659Z,14.42
2022-10-05T19:28:59.080Z,14.40
2022-10-05T19:31:44.808Z,14.38
2022-10-05T19:34:33.185Z,14.34
2022-10-05T19:37:43.244Z,14.27
2022-10-05T19:40:26.673Z,14.25
2022-10-05T19:43:26.076Z,14.24
2022-10-05T19:46:21.742Z,14.21
2022-10-05T19:48:52.535Z,14.22
2022-10-05T19:51:30.320Z,14.29
2022-10-05T19:54:29.129Z,14.32
2022-10-05T19:56:57.727Z,14.34
2022-10-05T19:59:31.341Z,14.31
2022-10-05T20:01:59.168Z,14.28
2022-10-05T20:04:37.233Z,14.31
2022-10-05T20:07:04.225Z,14.29
2022-10-05T20:09:50.239Z,14.26
2022-10-05T20:12:16.644Z,14.26
2022-10-05T20:15:03.409Z,14.23
2022-10-05T20:17:48.762Z,14.24
2022-10-05T20:20:47.246Z,14.20
2022-10-05T20:23:28.011Z,14.19
2022-10-05T20:26:13.401Z,14.17
2022-10-05T20:28:39.890Z,14.16
2022-10-05T20:31:07.981Z,14.17
2022-10-05T20:33:34.422Z,14.15
2022-10-05T20:36:03.546Z,14.12
2022-10-05T20:38:30.991Z,14.06
2022-10-05T20:40:57.614Z,14.08
2022-10-05T20:43:24.048Z,14.09
2022-10-05T20:45:53.689Z,14.18
2022-10-05T20:48:20.161Z,14.12
2022-10-05T20:50:47.305Z,14.15
2022-10-05T20:53:13.985Z,14.07
2022-10-05T20:55:40.492Z,14.13
2022-10-05T20:58:08.928Z,14.04
2022-10-05T21:00:54.153Z,14.03
2022-10-05T21:03:20.817Z,13.99
2022-10-05T21:05:47.429Z,14.02
2022-10-05T21:08:14.044Z,14.04
2022-10-05T21:10:40.506Z,13.95
2022-10-05T21:13:06.964Z,13.92
2022-10-05T21:15:33.633Z,13.86
2022-10-05T21:18:00.389Z,13.90
2022-10-05T21:20:27.154Z,13.92
2022-10-05T21:22:53.585Z,13.82
2022-10-05T21:25:19.978Z,13.72
2022-10-05T21:27:50.626Z,13.68
2022-10-05T21:30:17.197Z,13.54
2022-10-05T21:32:44.778Z,13.42
2022-10-05T21:35:11.499Z,13.42
2022-10-05T21:37:38.047Z,13.38
2022-10-05T21:40:04.809Z,13.41
2022-10-05T21:42:31.454Z,13.45
2022-10-05T21:44:57.809Z,13.32
2022-10-05T21:47:25.355Z,13.34
2022-10-05T21:49:51.825Z,13.41
2022-10-05T21:52:21.143Z,13.39
2022-10-05T21:54:47.811Z,13.43
2022-10-05T21:57:15.591Z,13.45
2022-10-05T21:59:42.828Z,13.49
2022-10-05T22:02:09.367Z,13.48
2022-10-05T22:04:35.767Z,13.50
2022-10-05T22:07:10.528Z,13.52
2022-10-05T22:09:37.162Z,13.54
2022-10-05T22:12:03.633Z,13.49
2022-10-05T22:14:29.985Z,13.50
2022-10-05T22:16:56.420Z,13.60
2022-10-05T22:19:23.142Z,13.63
2022-10-05T22:21:50.634Z,13.64
2022-10-05T22:24:17.231Z,13.70
2022-10-05T22:26:46.830Z,13.75
2022-10-05T22:29:16.098Z,13.77
2022-10-05T22:31:42.878Z,13.73
2022-10-05T22:34:09.509Z,13.77
2022-10-05T22:36:37.206Z,13.74
2022-10-05T22:39:03.907Z,13.78
2022-10-05T22:41:30.311Z,13.81
2022-10-05T22:43:56.783Z,13.91
2022-10-05T22:46:23.419Z,13.99
2022-10-05T22:48:49.913Z,14.02
2022-10-05T22:51:16.494Z,14.09
2022-10-05T22:53:43.333Z,14.19
2022-10-05T22:56:14.206Z,14.21
2022-10-05T22:58:42.390Z,14.18
2022-10-05T23:01:10.276Z,14.18
2022-10-05T23:03:37.158Z,14.23
2022-10-05T23:06:21.932Z,14.17
2022-10-05T23:08:51.167Z,14.20
2022-10-05T23:11:21.896Z,14.19
2022-10-05T23:13:48.727Z,14.14
2022-10-05T23:16:19.505Z,14.12
2022-10-05T23:18:51.643Z,14.10
2022-10-05T23:21:22.231Z,14.08
2022-10-05T23:23:55.899Z,14.06
2022-10-05T23:26:24.392Z,14.04
2022-10-05T23:28:53.917Z,14.11
2022-10-05T23:31:23.224Z,14.11
2022-10-05T23:33:53.546Z,14.01
2022-10-05T23:36:23.132Z,14.03
2022-10-05T23:38:52.828Z,14.01
2022-10-05T23:41:22.506Z,14.02
2022-10-05T23:43:49.823Z,13.96
2022-10-05T23:46:17.635Z,13.93
2022-10-05T23:48:44.444Z,13.93
2022-10-05T23:51:13.039Z,13.96
2022-10-05T23:53:39.551Z,13.94
2022-10-05T23:56:06.351Z,13.90
2022-10-05T23:58:33.035Z,13.94
